Sanmanyoshi5 — JD3207 — position and weather

sailwx.info

Track history (hours):
 
Tides and Currents Weather Stations Pressure Air Temp Water Temp Dewpoint Dewpoint Depression Visibility Wind Speed Wind Dir Waves Ship Positions

Sanmanyoshi5

Last reported at 2018-Feb-23 13:47 UTC. Time now 2018-Feb-24 15:39 UTC.
Position N 34°03' E 132°42'.

Length 61 m.

Type: Cargo ship. MMSI: 431002518.

Date/timePositionNaut miles runAvg speedWind from/ knotsBaromVisibWave heightAir tempDewpointWater temp
2018-Feb-23 13:47N 34°03' E 132°42'311.7
2018-Feb-23 13:30N 34°02' E 132°39'4610.8
2018-Feb-23 09:14N 33°47' E 131°46'312.4
2018-Feb-23 09:01N 33°47' E 131°43'612.3
2018-Feb-23 08:30N 33°49' E 131°35'612.2
2018-Feb-23 07:59N 33°50' E 131°28'612.1
2018-Feb-23 07:31N 33°51' E 131°21'612.0
2018-Feb-23 06:59N 33°52' E 131°14'611.9
2018-Feb-23 06:30N 33°55' E 131°08'611.5
2018-Feb-23 06:00N 33°58' E 131°02'5 9.3
2018-Feb-23 05:30N 33°56' E 130°57'3 6.9
2018-Feb-23 05:00N 33°55' E 130°53'0 0.8
2018-Feb-23 04:29N 33°54' E 130°53'0 0.0
2018-Feb-23 03:59N 33°54' E 130°53'0 0.0
2018-Feb-23 03:29N 33°54' E 130°53'0 0.0
2018-Feb-23 02:59N 33°54' E 130°53'0 0.0
2018-Feb-23 02:29N 33°54' E 130°53'0 0.0
2018-Feb-23 01:59N 33°54' E 130°53'0 0.1
2018-Feb-23 01:29N 33°54' E 130°53'0 0.0
2018-Feb-23 00:59N 33°54' E 130°53'0 0.0
2018-Feb-23 00:29N 33°54' E 130°53'0 0.0
2018-Feb-22 23:59N 33°54' E 130°53'0 0.0
2018-Feb-22 23:29N 33°54' E 130°53'0 0.0
2018-Feb-22 22:59N 33°54' E 130°53'0 0.0
2018-Feb-22 22:29N 33°54' E 130°53'0 0.0
2018-Feb-22 21:59N 33°54' E 130°53'0 0.0
2018-Feb-22 21:29N 33°54' E 130°53'0 0.0
2018-Feb-22 20:59N 33°54' E 130°53'0 0.0
2018-Feb-22 20:29N 33°54' E 130°53'0 0.0
2018-Feb-22 19:59N 33°54' E 130°53'0 0.0
2018-Feb-22 19:29N 33°54' E 130°53'0 0.0
2018-Feb-22 18:59N 33°54' E 130°53'0 0.0
2018-Feb-22 18:29N 33°54' E 130°53'0 0.0
2018-Feb-22 17:59N 33°54' E 130°53'1 1.5
2018-Feb-22 17:30N 33°55' E 130°53'611.4
2018-Feb-22 17:00N 33°58' E 130°59'510.4
2018-Feb-22 16:30N 33°57' E 131°05'510.9
2018-Feb-22 16:00N 33°54' E 131°10'611.1
2018-Feb-22 15:30N 33°52' E 131°16'611.2
2018-Feb-22 14:59N 33°51' E 131°23'611.1
2018-Feb-22 14:29N 33°50' E 131°30'511.1
2018-Feb-22 14:00N 33°49' E 131°36'5210.4
2018-Feb-22 09:02N 34°01' E 132°37'011.1
2018-Feb-22 09:00N 34°01' E 132°37'4 0.2
2018-Feb-21 05:12N 34°03' E 132°42'211.7
2018-Feb-21 04:59N 34°02' E 132°39'4811.0
2018-Feb-21 00:40N 33°47' E 131°45'210.9
2018-Feb-21 00:30N 33°47' E 131°42'510.8
2018-Feb-21 00:00N 33°48' E 131°36'610.9
2018-Feb-20 23:30N 33°49' E 131°30'510.9
2018-Feb-20 23:00N 33°51' E 131°23'511.0
2018-Feb-20 22:30N 33°52' E 131°17'511.0
2018-Feb-20 22:00N 33°54' E 131°11'611.5
2018-Feb-20 21:30N 33°57' E 131°05'611.7
2018-Feb-20 21:00N 33°58' E 130°58'5 9.6
2018-Feb-20 20:30N 33°56' E 130°53'510.9
2018-Feb-20 20:00N 33°58' E 130°47'611.7
2018-Feb-20 19:30N 33°57' E 130°40'611.6
2018-Feb-20 19:00N 33°56' E 130°33'611.2
2018-Feb-20 18:30N 33°53' E 130°27'611.7
2018-Feb-20 18:00N 33°49' E 130°22'611.8
2018-Feb-20 17:29N 33°45' E 130°17'  
2018-Feb-18 04:14N 33°41' E 130°11'3 9.5
2018-Feb-18 03:54N 33°43' E 130°14'4 9.9
2018-Feb-18 03:30N 33°46' E 130°17'510.0
2018-Feb-18 03:00N 33°49' E 130°22'5 9.9
2018-Feb-18 02:30N 33°53' E 130°26'4 8.9
2018-Feb-18 02:00N 33°56' E 130°30'510.6
2018-Feb-18 01:29N 33°57' E 130°37'510.8
2018-Feb-18 01:00N 33°58' E 130°43'611.0
2018-Feb-18 00:30N 33°58' E 130°49'611.4
2018-Feb-18 00:00N 33°55' E 130°55'611.8
2018-Feb-17 23:30N 33°59' E 131°00'611.3
2018-Feb-17 23:00N 33°56' E 131°06'611.6
2018-Feb-17 22:30N 33°53' E 131°12'611.7
2018-Feb-17 22:00N 33°51' E 131°19'611.3
2018-Feb-17 21:30N 33°50' E 131°26'611.4
2018-Feb-17 21:00N 33°49' E 131°32'611.2
2018-Feb-17 20:29N 33°48' E 131°39'5010.7
2018-Feb-17 15:50N 34°01' E 132°37'115 2.5
2018-Feb-15 18:37N 33°58' E 134°56'110.9
2018-Feb-15 18:30N 33°57' E 134°57'103 6.9
2018-Feb-15 03:34N 34°49' E 136°45'111.6
2018-Feb-15 03:30N 34°49' E 136°45'611.6
2018-Feb-15 03:01N 34°55' E 136°46'611.8
2018-Feb-15 02:31N 35°00' E 136°49'4 6.5
2018-Feb-15 01:58N 35°04' E 136°50'0 0.0
2018-Feb-15 01:28N 35°04' E 136°50'0 0.0
2018-Feb-15 00:58N 35°04' E 136°50'0 0.0
2018-Feb-15 00:28N 35°04' E 136°50'0 0.0
2018-Feb-14 23:58N 35°04' E 136°50'0 0.0
2018-Feb-14 23:28N 35°04' E 136°50'0 0.0
2018-Feb-14 22:58N 35°04' E 136°50'2 5.1
2018-Feb-14 22:30N 35°01' E 136°50'4 6.9
2018-Feb-14 21:59N 34°58' E 136°48'0 0.1
2018-Feb-14 21:29N 34°58' E 136°48'0 0.0
2018-Feb-14 20:59N 34°58' E 136°48'0 0.1
2018-Feb-14 20:29N 34°58' E 136°48'0 0.0
2018-Feb-14 19:59N 34°58' E 136°48'0 0.0
2018-Feb-14 19:29N 34°58' E 136°48'0 0.0
2018-Feb-14 18:56N 34°58' E 136°48'0 0.0
2018-Feb-14 18:29N 34°58' E 136°48'0 0.0
2018-Feb-14 17:59N 34°58' E 136°48'0 0.0
2018-Feb-14 17:29N 34°58' E 136°48'0 0.0
2018-Feb-14 16:59N 34°58' E 136°48'0 0.0
2018-Feb-14 16:29N 34°58' E 136°48'0 0.0
2018-Feb-14 15:59N 34°58' E 136°48'0 0.0
2018-Feb-14 15:29N 34°58' E 136°48'0 0.0
2018-Feb-14 14:59N 34°58' E 136°48'0 0.0
2018-Feb-14 14:29N 34°58' E 136°48'0 0.1
2018-Feb-14 13:59N 34°58' E 136°48'0 0.0
2018-Feb-14 13:26N 34°58' E 136°48'0 0.1
2018-Feb-14 12:59N 34°58' E 136°48'0 0.0
2018-Feb-14 12:29N 34°58' E 136°48'0 0.0
2018-Feb-14 11:59N 34°58' E 136°48'0 0.0
2018-Feb-14 11:29N 34°58' E 136°48'0 0.1
2018-Feb-14 11:00N 34°58' E 136°48'5 9.0
2018-Feb-14 10:30N 34°54' E 136°47'610.5
2018-Feb-14 09:59N 34°48' E 136°48'148 8.2
2018-Feb-13 15:51N 35°16' E 139°46'310.1
2018-Feb-13 15:30N 35°19' E 139°43'3 5.7
2018-Feb-13 14:53N 35°21' E 139°40'0 0.0
2018-Feb-13 14:29N 35°21' E 139°40'0 0.0
2018-Feb-13 13:59N 35°21' E 139°40'  
Track history (hours):
 
Tides and Currents Weather Stations Pressure Air Temp Water Temp Dewpoint Dewpoint Depression Visibility Wind Speed Wind Dir Waves Ship Positions

Sanmanyoshi5

Last reported at 2018-Feb-23 13:47 UTC. Time now 2018-Feb-24 15:39 UTC.
Position N 34°03' E 132°42'.

Length 61 m.

Type: Cargo ship. MMSI: 431002518.

Date/timePositionNaut miles runAvg speedWind from/ knotsBaromVisibWave heightAir tempDewpointWater temp
2018-Feb-23 13:47N 34°03' E 132°42'311.7
2018-Feb-23 13:30N 34°02' E 132°39'4610.8
2018-Feb-23 09:14N 33°47' E 131°46'312.4
2018-Feb-23 09:01N 33°47' E 131°43'612.3
2018-Feb-23 08:30N 33°49' E 131°35'612.2
2018-Feb-23 07:59N 33°50' E 131°28'612.1
2018-Feb-23 07:31N 33°51' E 131°21'612.0
2018-Feb-23 06:59N 33°52' E 131°14'611.9
2018-Feb-23 06:30N 33°55' E 131°08'611.5
2018-Feb-23 06:00N 33°58' E 131°02'5 9.3
2018-Feb-23 05:30N 33°56' E 130°57'3 6.9
2018-Feb-23 05:00N 33°55' E 130°53'0 0.8
2018-Feb-23 04:29N 33°54' E 130°53'0 0.0
2018-Feb-23 03:59N 33°54' E 130°53'0 0.0
2018-Feb-23 03:29N 33°54' E 130°53'0 0.0
2018-Feb-23 02:59N 33°54' E 130°53'0 0.0
2018-Feb-23 02:29N 33°54' E 130°53'0 0.0
2018-Feb-23 01:59N 33°54' E 130°53'0 0.1
2018-Feb-23 01:29N 33°54' E 130°53'0 0.0
2018-Feb-23 00:59N 33°54' E 130°53'0 0.0
2018-Feb-23 00:29N 33°54' E 130°53'0 0.0
2018-Feb-22 23:59N 33°54' E 130°53'0 0.0
2018-Feb-22 23:29N 33°54' E 130°53'0 0.0
2018-Feb-22 22:59N 33°54' E 130°53'0 0.0
2018-Feb-22 22:29N 33°54' E 130°53'0 0.0
2018-Feb-22 21:59N 33°54' E 130°53'0 0.0
2018-Feb-22 21:29N 33°54' E 130°53'0 0.0
2018-Feb-22 20:59N 33°54' E 130°53'0 0.0
2018-Feb-22 20:29N 33°54' E 130°53'0 0.0
2018-Feb-22 19:59N 33°54' E 130°53'0 0.0
2018-Feb-22 19:29N 33°54' E 130°53'0 0.0
2018-Feb-22 18:59N 33°54' E 130°53'0 0.0
2018-Feb-22 18:29N 33°54' E 130°53'0 0.0
2018-Feb-22 17:59N 33°54' E 130°53'1 1.5
2018-Feb-22 17:30N 33°55' E 130°53'611.4
2018-Feb-22 17:00N 33°58' E 130°59'510.4
2018-Feb-22 16:30N 33°57' E 131°05'510.9
2018-Feb-22 16:00N 33°54' E 131°10'611.1
2018-Feb-22 15:30N 33°52' E 131°16'611.2
2018-Feb-22 14:59N 33°51' E 131°23'611.1
2018-Feb-22 14:29N 33°50' E 131°30'511.1
2018-Feb-22 14:00N 33°49' E 131°36'5210.4
2018-Feb-22 09:02N 34°01' E 132°37'011.1
2018-Feb-22 09:00N 34°01' E 132°37'4 0.2
2018-Feb-21 05:12N 34°03' E 132°42'211.7
2018-Feb-21 04:59N 34°02' E 132°39'4811.0
2018-Feb-21 00:40N 33°47' E 131°45'210.9
2018-Feb-21 00:30N 33°47' E 131°42'510.8
2018-Feb-21 00:00N 33°48' E 131°36'610.9
2018-Feb-20 23:30N 33°49' E 131°30'510.9
2018-Feb-20 23:00N 33°51' E 131°23'511.0
2018-Feb-20 22:30N 33°52' E 131°17'511.0
2018-Feb-20 22:00N 33°54' E 131°11'611.5
2018-Feb-20 21:30N 33°57' E 131°05'611.7
2018-Feb-20 21:00N 33°58' E 130°58'5 9.6
2018-Feb-20 20:30N 33°56' E 130°53'510.9
2018-Feb-20 20:00N 33°58' E 130°47'611.7
2018-Feb-20 19:30N 33°57' E 130°40'611.6
2018-Feb-20 19:00N 33°56' E 130°33'611.2
2018-Feb-20 18:30N 33°53' E 130°27'611.7
2018-Feb-20 18:00N 33°49' E 130°22'611.8
2018-Feb-20 17:29N 33°45' E 130°17'  
2018-Feb-18 04:14N 33°41' E 130°11'3 9.5
2018-Feb-18 03:54N 33°43' E 130°14'4 9.9
2018-Feb-18 03:30N 33°46' E 130°17'510.0
2018-Feb-18 03:00N 33°49' E 130°22'5 9.9
2018-Feb-18 02:30N 33°53' E 130°26'4 8.9
2018-Feb-18 02:00N 33°56' E 130°30'510.6
2018-Feb-18 01:29N 33°57' E 130°37'510.8
2018-Feb-18 01:00N 33°58' E 130°43'611.0
2018-Feb-18 00:30N 33°58' E 130°49'611.4
2018-Feb-18 00:00N 33°55' E 130°55'611.8
2018-Feb-17 23:30N 33°59' E 131°00'611.3
2018-Feb-17 23:00N 33°56' E 131°06'611.6
2018-Feb-17 22:30N 33°53' E 131°12'611.7
2018-Feb-17 22:00N 33°51' E 131°19'611.3
2018-Feb-17 21:30N 33°50' E 131°26'611.4
2018-Feb-17 21:00N 33°49' E 131°32'611.2
2018-Feb-17 20:29N 33°48' E 131°39'5010.7
2018-Feb-17 15:50N 34°01' E 132°37'115 2.5
2018-Feb-15 18:37N 33°58' E 134°56'110.9
2018-Feb-15 18:30N 33°57' E 134°57'103 6.9
2018-Feb-15 03:34N 34°49' E 136°45'111.6
2018-Feb-15 03:30N 34°49' E 136°45'611.6
2018-Feb-15 03:01N 34°55' E 136°46'611.8
2018-Feb-15 02:31N 35°00' E 136°49'4 6.5
2018-Feb-15 01:58N 35°04' E 136°50'0 0.0
2018-Feb-15 01:28N 35°04' E 136°50'0 0.0
2018-Feb-15 00:58N 35°04' E 136°50'0 0.0
2018-Feb-15 00:28N 35°04' E 136°50'0 0.0
2018-Feb-14 23:58N 35°04' E 136°50'0 0.0
2018-Feb-14 23:28N 35°04' E 136°50'0 0.0
2018-Feb-14 22:58N 35°04' E 136°50'2 5.1
2018-Feb-14 22:30N 35°01' E 136°50'4 6.9
2018-Feb-14 21:59N 34°58' E 136°48'0 0.1
2018-Feb-14 21:29N 34°58' E 136°48'0 0.0
2018-Feb-14 20:59N 34°58' E 136°48'0 0.1
2018-Feb-14 20:29N 34°58' E 136°48'0 0.0
2018-Feb-14 19:59N 34°58' E 136°48'0 0.0
2018-Feb-14 19:29N 34°58' E 136°48'0 0.0
2018-Feb-14 18:56N 34°58' E 136°48'0 0.0
2018-Feb-14 18:29N 34°58' E 136°48'0 0.0
2018-Feb-14 17:59N 34°58' E 136°48'0 0.0
2018-Feb-14 17:29N 34°58' E 136°48'0 0.0
2018-Feb-14 16:59N 34°58' E 136°48'0 0.0
2018-Feb-14 16:29N 34°58' E 136°48'0 0.0
2018-Feb-14 15:59N 34°58' E 136°48'0 0.0
2018-Feb-14 15:29N 34°58' E 136°48'0 0.0
2018-Feb-14 14:59N 34°58' E 136°48'0 0.0
2018-Feb-14 14:29N 34°58' E 136°48'0 0.1
2018-Feb-14 13:59N 34°58' E 136°48'0 0.0
2018-Feb-14 13:26N 34°58' E 136°48'0 0.1
2018-Feb-14 12:59N 34°58' E 136°48'0 0.0
2018-Feb-14 12:29N 34°58' E 136°48'0 0.0
2018-Feb-14 11:59N 34°58' E 136°48'0 0.0
2018-Feb-14 11:29N 34°58' E 136°48'0 0.1
2018-Feb-14 11:00N 34°58' E 136°48'5 9.0
2018-Feb-14 10:30N 34°54' E 136°47'610.5
2018-Feb-14 09:59N 34°48' E 136°48'148 8.2
2018-Feb-13 15:51N 35°16' E 139°46'310.1
2018-Feb-13 15:30N 35°19' E 139°43'3 5.7
2018-Feb-13 14:53N 35°21' E 139°40'0 0.0
2018-Feb-13 14:29N 35°21' E 139°40'0 0.0
2018-Feb-13 13:59N 35°21' E 139°40'  

Dump ship's entire track history